createdAt,value
2023-03-29T00:00:27.083Z,5.2274
2023-03-29T00:01:35.965Z,4.8719
2023-03-29T00:02:33.708Z,5.3273
2023-03-29T00:03:36.399Z,4.0344
2023-03-29T00:05:41.232Z,2.4991
2023-03-29T00:06:43.791Z,3.8235
2023-03-29T00:08:48.593Z,0.3486
2023-03-29T00:09:51.073Z,2.3189
2023-03-29T00:10:53.616Z,3.8231
2023-03-29T00:11:56.140Z,4.8639
2023-03-29T00:14:00.996Z,7.3766
2023-03-29T00:15:03.436Z,6.2597
2023-03-29T00:16:05.999Z,6.0803
2023-03-29T00:17:08.544Z,7.7674
2023-03-29T00:18:11.206Z,7.7936
2023-03-29T00:19:13.694Z,6.6654
2023-03-29T00:20:16.241Z,6.6024
2023-03-29T00:22:21.040Z,9.1290
2023-03-29T00:23:23.528Z,10.1979
2023-03-29T00:25:28.413Z,13.5236
2023-03-29T00:26:30.861Z,12.0588
2023-03-29T00:27:33.349Z,10.3171
2023-03-29T00:28:35.901Z,6.4307
2023-03-29T00:30:40.722Z,7.0281
2023-03-29T00:31:43.211Z,9.5688
2023-03-29T00:33:48.070Z,12.8938
2023-03-29T00:34:50.593Z,13.8428
2023-03-29T00:35:53.089Z,7.4804
2023-03-29T00:36:55.605Z,8.9728
2023-03-29T00:37:58.132Z,9.0323
2023-03-29T00:39:00.615Z,7.9465
2023-03-29T00:40:03.131Z,9.0356
2023-03-29T00:42:07.921Z,7.7845
2023-03-29T00:43:10.371Z,7.9440
2023-03-29T00:45:15.234Z,9.4117
2023-03-29T00:47:20.166Z,11.4949
2023-03-29T00:48:22.624Z,8.9818
2023-03-29T00:50:27.478Z,8.5462
2023-03-29T00:51:29.967Z,8.6906
2023-03-29T00:52:32.437Z,8.4099
2023-03-29T00:53:34.914Z,7.5291
2023-03-29T00:54:37.440Z,6.4964
2023-03-29T00:55:39.948Z,8.6884
2023-03-29T00:56:42.590Z,9.0900
2023-03-29T00:58:47.398Z,10.4004
2023-03-29T00:59:49.848Z,8.9853
2023-03-29T01:00:52.435Z,7.5887
2023-03-29T01:01:55.232Z,5.7339
2023-03-29T01:02:58.264Z,7.5088
2023-03-29T01:05:03.192Z,9.8668
2023-03-29T01:06:05.752Z,9.7856
2023-03-29T01:08:10.617Z,8.7670
2023-03-29T01:09:13.153Z,9.2117
2023-03-29T01:10:15.685Z,8.7362
2023-03-29T01:11:18.188Z,8.1172
2023-03-29T01:13:23.168Z,7.6636
2023-03-29T01:14:25.670Z,5.6736
2023-03-29T01:15:28.258Z,6.4263
2023-03-29T01:16:30.812Z,4.5770
2023-03-29T01:19:38.202Z,4.6429
2023-03-29T01:21:43.128Z,6.8481
2023-03-29T01:22:45.723Z,7.0062
2023-03-29T01:24:50.587Z,7.0299
2023-03-29T01:25:53.130Z,6.4247
2023-03-29T01:26:55.636Z,5.8474
2023-03-29T01:27:58.145Z,6.2634
2023-03-29T01:29:00.690Z,6.9452
2023-03-29T01:30:03.172Z,6.1990
2023-03-29T01:31:05.734Z,5.5019
2023-03-29T01:33:10.624Z,5.3977
2023-03-29T01:34:13.189Z,5.1500
2023-03-29T01:35:15.668Z,5.3890
2023-03-29T01:36:18.274Z,3.8793
2023-03-29T01:37:20.838Z,4.1064
2023-03-29T01:38:23.404Z,4.1090
2023-03-29T01:39:25.871Z,4.7539
2023-03-29T01:41:30.752Z,5.6928
2023-03-29T01:42:33.296Z,6.1962
2023-03-29T01:43:35.900Z,3.8239
2023-03-29T01:44:38.435Z,2.3158
2023-03-29T01:45:40.892Z,5.4432
2023-03-29T01:46:43.439Z,6.4847
2023-03-29T01:47:46.060Z,7.7017
2023-03-29T01:49:50.939Z,3.9479
2023-03-29T01:50:53.547Z,4.0507
2023-03-29T01:51:56.101Z,6.3111
2023-03-29T01:52:58.640Z,6.7134
2023-03-29T01:55:03.490Z,5.1098
2023-03-29T01:56:05.959Z,6.2005
2023-03-29T01:57:08.498Z,5.4449
2023-03-29T01:58:10.953Z,4.9271
2023-03-29T01:59:13.508Z,4.5752
2023-03-29T02:00:16.066Z,3.4726
2023-03-29T02:01:18.600Z,4.9254
2023-03-29T02:02:21.169Z,3.2415
2023-03-29T02:03:23.794Z,1.7374
2023-03-29T02:04:26.406Z,0.8655
2023-03-29T02:06:31.272Z,3.5995
2023-03-29T02:08:36.087Z,0.4064
2023-03-29T02:09:38.635Z,1.5066
2023-03-29T02:10:41.113Z,0.0000
2023-03-29T02:11:43.578Z,0.0000
2023-03-29T02:12:46.166Z,0.1158
2023-03-29T02:13:48.713Z,4.1078
2023-03-29T02:14:51.200Z,3.7667
2023-03-29T02:15:53.748Z,0.4630
2023-03-29T02:17:58.619Z,0.0000
2023-03-29T02:19:01.392Z,0.3475
2023-03-29T02:20:03.846Z,0.0577
2023-03-29T02:21:06.402Z,0.1158
2023-03-29T02:22:08.891Z,0.0000
2023-03-29T02:23:11.433Z,0.0000
2023-03-29T02:25:16.278Z,0.7547
2023-03-29T02:26:18.790Z,2.7832
2023-03-29T02:27:21.332Z,0.7526
2023-03-29T02:28:23.790Z,1.9706
2023-03-29T02:29:26.336Z,3.2447
2023-03-29T02:31:31.269Z,2.4971
2023-03-29T02:33:36.089Z,1.8599
2023-03-29T02:34:38.672Z,0.5212
2023-03-29T02:36:43.552Z,3.5402
2023-03-29T02:37:46.061Z,0.6947
2023-03-29T02:38:48.563Z,1.8548
2023-03-29T02:39:51.085Z,2.2599
2023-03-29T02:41:55.934Z,1.4524
2023-03-29T02:42:58.416Z,1.5065
2023-03-29T02:44:00.990Z,0.0000
2023-03-29T02:45:03.538Z,0.0000
2023-03-29T02:47:08.390Z,0.0000
2023-03-29T02:49:13.266Z,0.0000
2023-03-29T02:50:15.796Z,0.1159
2023-03-29T02:51:20.016Z,0.0000
2023-03-29T02:52:18.413Z,0.3014
2023-03-29T02:53:21.067Z,1.0994
2023-03-29T02:54:23.565Z,4.1101
2023-03-29T02:55:26.163Z,6.8299
2023-03-29T02:56:28.680Z,0.9839
2023-03-29T02:57:31.198Z,0.0000
2023-03-29T02:58:33.753Z,0.0000
2023-03-29T02:59:36.255Z,1.1587
2023-03-29T03:00:38.836Z,4.5740
2023-03-29T03:01:41.331Z,3.7648
2023-03-29T03:03:46.374Z,3.0780
2023-03-29T03:04:48.966Z,2.5993
2023-03-29T03:06:53.851Z,2.5541
2023-03-29T03:07:56.387Z,2.8364
2023-03-29T03:08:58.905Z,3.5354
2023-03-29T03:10:01.469Z,0.9265
2023-03-29T03:11:04.226Z,0.2317
2023-03-29T03:13:09.520Z,6.0975
2023-03-29T03:14:12.022Z,5.5080
2023-03-29T03:15:14.573Z,3.4745
2023-03-29T03:16:17.070Z,3.2444
2023-03-29T03:18:21.930Z,1.3946
2023-03-29T03:19:24.468Z,0.8686
2023-03-29T03:20:27.076Z,2.2599
2023-03-29T03:21:29.596Z,3.8731
2023-03-29T03:23:34.610Z,2.8464
2023-03-29T03:24:37.114Z,1.0410
2023-03-29T03:25:39.653Z,3.7064
2023-03-29T03:26:42.138Z,3.9409
2023-03-29T03:31:54.349Z,8.7727
2023-03-29T03:32:57.156Z,7.4631
2023-03-29T03:33:59.684Z,6.7163
2023-03-29T03:35:02.237Z,6.0762
2023-03-29T03:36:04.830Z,6.7151
2023-03-29T03:37:07.336Z,4.7495
2023-03-29T03:38:09.894Z,3.8765
2023-03-29T03:39:12.394Z,4.2316
2023-03-29T03:40:14.949Z,7.8700
2023-03-29T03:41:17.415Z,7.4756
2023-03-29T03:42:19.957Z,8.6864
2023-03-29T03:43:22.610Z,5.3240
2023-03-29T03:45:27.626Z,4.5153
2023-03-29T03:47:32.661Z,6.4851
2023-03-29T03:48:35.143Z,5.6781
2023-03-29T03:49:37.641Z,3.8797
2023-03-29T03:50:40.115Z,4.5196
2023-03-29T03:51:42.642Z,5.5014
2023-03-29T03:52:45.219Z,5.2125
2023-03-29T03:53:47.706Z,8.4558
2023-03-29T03:54:50.245Z,4.1102
2023-03-29T03:55:52.852Z,4.9834
2023-03-29T03:56:55.401Z,5.7779
2023-03-29T03:57:57.959Z,7.1766
2023-03-29T03:59:00.550Z,0.9259
2023-03-29T04:00:03.141Z,6.3649
2023-03-29T04:01:05.584Z,9.9085
2023-03-29T04:02:08.138Z,9.2082
2023-03-29T04:04:13.047Z,8.4724
2023-03-29T04:05:15.493Z,5.6180
2023-03-29T04:06:18.086Z,4.8055
2023-03-29T04:07:20.592Z,5.8511
2023-03-29T04:08:23.171Z,8.6792
2023-03-29T04:10:27.982Z,3.3683
2023-03-29T04:11:30.481Z,3.7083
2023-03-29T04:12:33.033Z,7.7555
2023-03-29T04:13:35.576Z,12.0413
2023-03-29T04:15:40.398Z,6.2731
2023-03-29T04:16:42.964Z,5.3266
2023-03-29T04:18:47.829Z,9.4102
2023-03-29T04:19:50.376Z,9.1413
2023-03-29T04:20:52.947Z,7.9271
2023-03-29T04:21:55.390Z,6.0857
2023-03-29T04:22:57.887Z,7.9349
2023-03-29T04:25:02.715Z,8.3605
2023-03-29T04:26:05.266Z,9.2740
2023-03-29T04:28:10.209Z,13.1650
2023-03-29T04:29:12.724Z,9.9130
2023-03-29T04:30:15.229Z,9.7884
2023-03-29T04:31:17.782Z,9.3197
2023-03-29T04:32:20.277Z,7.8178
2023-03-29T04:33:22.776Z,10.4898
2023-03-29T04:34:25.264Z,7.8763
2023-03-29T04:35:27.739Z,9.7377
2023-03-29T04:37:32.646Z,7.9532
2023-03-29T04:38:35.153Z,6.4308
2023-03-29T04:39:37.647Z,8.3350
2023-03-29T04:40:40.141Z,10.0919
2023-03-29T04:42:44.976Z,4.6489
2023-03-29T04:43:47.509Z,10.3051
2023-03-29T04:44:50.080Z,7.5896
2023-03-29T04:45:52.656Z,7.4565
2023-03-29T04:46:55.358Z,11.0485
2023-03-29T04:47:57.912Z,6.1269
2023-03-29T04:49:00.479Z,5.3238
2023-03-29T04:50:02.964Z,8.4587
2023-03-29T04:51:05.482Z,8.4549
2023-03-29T04:52:08.014Z,12.8023
2023-03-29T04:53:10.528Z,14.7577
2023-03-29T04:54:13.088Z,15.5222
2023-03-29T04:55:15.649Z,18.8178
2023-03-29T04:56:18.091Z,13.0833
2023-03-29T04:57:20.685Z,17.7242
2023-03-29T04:59:25.508Z,10.3404
2023-03-29T05:00:28.064Z,14.5848
2023-03-29T05:01:30.587Z,13.3311
2023-03-29T05:02:33.146Z,13.0756
2023-03-29T05:03:35.766Z,13.2447
2023-03-29T05:05:40.584Z,14.7035
2023-03-29T05:06:43.170Z,16.1472
2023-03-29T05:07:45.717Z,17.7674
2023-03-29T05:08:48.172Z,16.3372
2023-03-29T05:09:50.684Z,18.6403
2023-03-29T05:10:53.173Z,21.3908
2023-03-29T05:11:55.727Z,19.7958
2023-03-29T05:14:00.509Z,14.5294
2023-03-29T05:18:10.266Z,16.1502
2023-03-29T05:19:12.810Z,14.8367
2023-03-29T05:20:15.458Z,14.1907
2023-03-29T05:22:20.300Z,11.8495
2023-03-29T05:24:25.073Z,9.1835
2023-03-29T05:25:27.865Z,11.6216
2023-03-29T05:26:30.363Z,10.7976
2023-03-29T05:27:33.021Z,5.5627
2023-03-29T05:28:35.576Z,4.7357
2023-03-29T05:29:38.112Z,5.4396
2023-03-29T05:30:40.599Z,2.8979
2023-03-29T05:31:43.173Z,6.1934
2023-03-29T05:32:45.739Z,8.4998
2023-03-29T05:33:48.188Z,6.7804
2023-03-29T05:35:53.114Z,8.0062
2023-03-29T05:36:55.571Z,8.0515
2023-03-29T05:37:58.092Z,5.8489
2023-03-29T05:40:05.825Z,5.4028
2023-03-29T05:41:04.589Z,6.5343
2023-03-29T05:43:09.596Z,5.2828
2023-03-29T05:44:12.139Z,7.1800
2023-03-29T05:45:14.677Z,7.4116
2023-03-29T05:46:17.234Z,7.1837
2023-03-29T05:47:19.944Z,6.1814
2023-03-29T05:49:24.812Z,5.3999
2023-03-29T05:50:27.330Z,6.6023
2023-03-29T05:52:32.204Z,6.3873
2023-03-29T05:53:34.684Z,6.5405
2023-03-29T05:55:39.466Z,5.4025
2023-03-29T05:56:41.995Z,8.9243
2023-03-29T05:58:46.845Z,8.3002
2023-03-29T05:59:49.283Z,6.7208
2023-03-29T06:00:51.803Z,9.6080
2023-03-29T06:01:54.383Z,8.1045
2023-03-29T06:03:03.654Z,8.1093
2023-03-29T06:05:03.156Z,7.7854
2023-03-29T06:06:05.743Z,7.1123
2023-03-29T06:07:08.192Z,7.0113
2023-03-29T06:08:10.742Z,6.6582
2023-03-29T06:09:13.263Z,5.0326
2023-03-29T06:10:15.757Z,5.9715
2023-03-29T06:11:18.302Z,8.4498
2023-03-29T06:20:39.535Z,10.6248
2023-03-29T06:22:44.328Z,10.5628
2023-03-29T06:23:46.765Z,12.2263
2023-03-29T06:24:49.410Z,10.5297
2023-03-29T06:25:51.871Z,9.3788
2023-03-29T06:27:56.795Z,13.1766
2023-03-29T06:28:59.247Z,10.9512
2023-03-29T06:30:01.744Z,10.3097
2023-03-29T06:31:04.468Z,7.5935
2023-03-29T06:32:07.596Z,9.4779
2023-03-29T06:34:12.371Z,7.6668
2023-03-29T06:35:14.855Z,14.4801
2023-03-29T06:37:19.712Z,12.5476
2023-03-29T06:38:22.148Z,11.9922
2023-03-29T06:39:24.621Z,11.8750
2023-03-29T06:40:27.078Z,9.7933
2023-03-29T06:41:29.542Z,10.2544
2023-03-29T06:42:31.961Z,9.4477
2023-03-29T06:44:36.661Z,11.2712
2023-03-29T06:46:41.516Z,13.2432
2023-03-29T06:47:43.986Z,10.0220
2023-03-29T06:48:46.427Z,10.3065
2023-03-29T06:49:48.869Z,10.2631
2023-03-29T06:50:51.369Z,8.9788
2023-03-29T06:52:56.153Z,10.4022
2023-03-29T06:53:58.586Z,9.5670
2023-03-29T06:55:01.110Z,10.6013
2023-03-29T06:56:03.559Z,8.6838
2023-03-29T06:57:06.058Z,9.4537
2023-03-29T06:58:08.514Z,9.1449
2023-03-29T06:59:10.969Z,12.2296
2023-03-29T07:00:13.444Z,14.9471
2023-03-29T07:01:16.011Z,12.0592
2023-03-29T07:02:18.486Z,11.1555
2023-03-29T07:04:23.270Z,10.9802
2023-03-29T07:05:25.726Z,8.7439
2023-03-29T07:06:28.164Z,11.1908
2023-03-29T07:07:30.617Z,9.9673
2023-03-29T07:08:33.050Z,6.4320
2023-03-29T07:09:35.559Z,6.7754
2023-03-29T07:10:38.031Z,9.3273
2023-03-29T07:12:42.770Z,5.1089
2023-03-29T07:13:45.193Z,3.6541
2023-03-29T07:14:47.647Z,2.8383
2023-03-29T07:15:50.105Z,5.1027
2023-03-29T07:17:54.895Z,3.4855
2023-03-29T07:18:57.338Z,5.0946
2023-03-29T07:19:58.420Z,9.0074
2023-03-29T07:22:03.161Z,3.7162
2023-03-29T07:23:05.571Z,3.9995
2023-03-29T07:24:08.063Z,0.9267
2023-03-29T07:25:10.540Z,1.4493
2023-03-29T07:26:13.026Z,5.0374
2023-03-29T07:27:15.413Z,2.1437
2023-03-29T07:28:17.879Z,5.4459
2023-03-29T07:29:20.359Z,1.3325
2023-03-29T07:30:22.821Z,0.2897
2023-03-29T07:31:25.278Z,2.4319
2023-03-29T07:32:27.825Z,3.9409
2023-03-29T07:34:32.656Z,3.3121
2023-03-29T07:35:35.193Z,1.2746
2023-03-29T07:37:39.922Z,2.8484
2023-03-29T07:38:42.330Z,0.9854
2023-03-29T07:39:44.773Z,1.1008
2023-03-29T07:40:47.233Z,3.2438
2023-03-29T07:42:52.635Z,3.3393
2023-03-29T07:43:55.039Z,7.6925
2023-03-29T07:44:57.477Z,5.3300
2023-03-29T07:45:59.950Z,4.0570
2023-03-29T07:47:02.352Z,1.3910
2023-03-29T07:48:04.932Z,0.0000
2023-03-29T07:49:07.352Z,5.8488
2023-03-29T07:50:09.795Z,8.2237
2023-03-29T07:51:12.206Z,2.6662
2023-03-29T07:52:14.627Z,3.0709
2023-03-29T07:53:17.055Z,2.3200
2023-03-29T07:54:19.538Z,1.3897
2023-03-29T07:55:22.035Z,5.2121
2023-03-29T07:56:24.458Z,6.1410
2023-03-29T07:57:27.219Z,7.0677
2023-03-29T07:59:32.063Z,5.5747
2023-03-29T08:00:34.555Z,6.6677
2023-03-29T08:02:39.170Z,5.4049
2023-03-29T08:03:41.654Z,5.5637
2023-03-29T08:05:46.369Z,4.9980
2023-03-29T08:06:48.774Z,4.5780
2023-03-29T08:07:51.236Z,4.4597
2023-03-29T08:08:53.633Z,3.8239
2023-03-29T08:09:56.031Z,5.0459
2023-03-29T08:10:58.476Z,1.6796
2023-03-29T08:12:00.914Z,3.6495
2023-03-29T08:13:03.330Z,8.2338
2023-03-29T08:14:05.774Z,5.7908
2023-03-29T08:16:10.442Z,4.5900
2023-03-29T08:17:12.941Z,3.9961
2023-03-29T08:19:17.711Z,3.2479
2023-03-29T08:20:20.173Z,1.7385
2023-03-29T08:22:24.843Z,0.5809
2023-03-29T08:24:29.545Z,0.9876
2023-03-29T08:25:32.044Z,2.5465
2023-03-29T08:26:34.431Z,4.2898
2023-03-29T08:27:36.902Z,4.2884
2023-03-29T08:29:41.824Z,4.2253
2023-03-29T08:31:46.526Z,2.7873
2023-03-29T08:32:51.078Z,1.9134
2023-03-29T08:33:51.082Z,0.6982
2023-03-29T08:35:55.825Z,4.4154
2023-03-29T08:38:00.507Z,4.0671
2023-03-29T08:39:02.979Z,4.1128
2023-03-29T08:40:05.372Z,5.3341
2023-03-29T08:41:07.839Z,6.1405
2023-03-29T08:42:10.218Z,3.7666
2023-03-29T08:43:12.676Z,5.2138
2023-03-29T08:44:15.056Z,4.6953
2023-03-29T08:46:19.802Z,4.5875
2023-03-29T08:47:22.247Z,1.1014
2023-03-29T08:49:26.931Z,4.4145
2023-03-29T08:51:31.524Z,2.7900
2023-03-29T08:52:33.993Z,4.6920
2023-03-29T08:53:36.391Z,4.9840
2023-03-29T08:54:38.900Z,2.2581
2023-03-29T08:55:41.386Z,6.2475
2023-03-29T08:57:46.019Z,8.3084
2023-03-29T08:58:48.384Z,8.6938
2023-03-29T08:59:50.810Z,6.8964
2023-03-29T09:00:53.233Z,9.0929
2023-03-29T09:02:58.313Z,7.6662
2023-03-29T09:04:00.902Z,10.3484
2023-03-29T09:06:05.568Z,11.2084
2023-03-29T09:08:10.351Z,7.2529
2023-03-29T09:09:12.776Z,4.9232
2023-03-29T09:11:17.529Z,7.2585
2023-03-29T09:12:19.989Z,8.8025
2023-03-29T09:13:22.387Z,8.5173
2023-03-29T09:14:24.835Z,7.6429
2023-03-29T09:15:27.260Z,6.7175
2023-03-29T09:16:29.763Z,8.4526
2023-03-29T09:17:32.218Z,7.2949
2023-03-29T09:18:34.688Z,7.6337
2023-03-29T09:19:37.072Z,4.6343
2023-03-29T09:20:39.537Z,7.2384
2023-03-29T09:21:41.986Z,7.4684
2023-03-29T09:22:44.376Z,4.4036
2023-03-29T09:24:49.110Z,7.0248
2023-03-29T09:25:54.202Z,6.5440
2023-03-29T09:26:52.221Z,9.1748
2023-03-29T09:27:54.675Z,8.1637
2023-03-29T09:28:57.173Z,5.5589
2023-03-29T09:29:59.560Z,7.5866
2023-03-29T09:31:02.270Z,7.9349
2023-03-29T09:32:04.868Z,8.0539
2023-03-29T09:33:07.363Z,4.4005
2023-03-29T09:34:09.781Z,5.6706
2023-03-29T09:36:14.604Z,7.7749
2023-03-29T09:37:17.004Z,7.0078
2023-03-29T09:38:19.516Z,6.7144
2023-03-29T09:39:21.942Z,5.9046
2023-03-29T09:41:26.646Z,2.8468
2023-03-29T09:42:29.073Z,7.2354
2023-03-29T09:43:31.536Z,5.7359
2023-03-29T09:44:33.936Z,5.6164
2023-03-29T09:46:38.651Z,5.4565
2023-03-29T09:47:41.141Z,4.9230
2023-03-29T09:48:43.597Z,8.4419
2023-03-29T09:49:46.102Z,7.0031
2023-03-29T09:50:48.530Z,7.9923
2023-03-29T09:52:53.268Z,5.5741
2023-03-29T09:53:55.752Z,3.1835
2023-03-29T09:56:00.533Z,5.0438
2023-03-29T09:57:03.058Z,7.9297
2023-03-29T09:58:05.468Z,7.2962
2023-03-29T09:59:07.918Z,8.3962
2023-03-29T10:00:10.352Z,5.7935
2023-03-29T10:01:12.856Z,5.5547
2023-03-29T10:03:17.504Z,1.1619
2023-03-29T10:04:19.981Z,4.9797
2023-03-29T10:06:24.638Z,4.5877
2023-03-29T10:07:27.082Z,7.2389
2023-03-29T10:08:29.483Z,7.4117
2023-03-29T10:09:32.074Z,4.9222
2023-03-29T10:10:34.481Z,9.3008
2023-03-29T10:11:37.022Z,7.1794
2023-03-29T10:12:39.454Z,4.6244
2023-03-29T10:13:41.834Z,8.8606
2023-03-29T10:15:46.494Z,7.3137
2023-03-29T10:16:49.013Z,5.4455
2023-03-29T10:18:53.638Z,8.9436
2023-03-29T10:19:56.061Z,4.6308
2023-03-29T10:20:58.461Z,5.5031
2023-03-29T10:22:00.867Z,5.8446
2023-03-29T10:23:03.307Z,5.0372
2023-03-29T10:24:05.681Z,9.7322
2023-03-29T10:25:08.087Z,7.5236
2023-03-29T10:27:12.740Z,10.7314
2023-03-29T10:28:15.119Z,11.0088
2023-03-29T10:29:17.554Z,7.5222
2023-03-29T10:30:19.945Z,6.8324
2023-03-29T10:31:22.378Z,5.9102
2023-03-29T10:32:24.857Z,5.7815
2023-03-29T10:33:27.197Z,7.1798
2023-03-29T10:34:29.670Z,4.8640
2023-03-29T10:35:32.112Z,4.2828
2023-03-29T10:36:34.510Z,7.0559
2023-03-29T10:37:36.864Z,5.3875
2023-03-29T10:39:41.486Z,4.5861
2023-03-29T10:40:43.801Z,6.8958
2023-03-29T10:41:46.187Z,8.6864
2023-03-29T10:42:48.527Z,7.4735
2023-03-29T10:43:51.149Z,5.6157
2023-03-29T10:44:54.337Z,7.1898
2023-03-29T16:02:32.911Z,8.9913
2023-03-29T16:03:33.139Z,8.2924
2023-03-29T16:04:33.414Z,5.9580
2023-03-29T16:05:33.618Z,10.2012
2023-03-29T16:06:33.795Z,9.9303
2023-03-29T16:07:34.047Z,6.7335
2023-03-29T16:08:34.275Z,9.2540
2023-03-29T16:09:34.445Z,9.3802
2023-03-29T16:10:34.653Z,7.8199
2023-03-29T16:11:34.854Z,9.3798
2023-03-29T16:12:35.045Z,7.3981
2023-03-29T16:13:35.271Z,5.1706
2023-03-29T16:14:35.404Z,4.5124
2023-03-29T16:15:35.650Z,4.2669
2023-03-29T16:16:36.987Z,2.3062
2023-03-29T16:17:37.248Z,2.8198
2023-03-29T16:18:37.463Z,2.8848
2023-03-29T16:19:37.749Z,2.7040
2023-03-29T16:21:37.987Z,2.6527
2023-03-29T16:22:38.239Z,1.1431
2023-03-29T16:23:38.442Z,0.9613
2023-03-29T16:24:38.638Z,0.1204
2023-03-29T16:25:38.852Z,0.7812
2023-03-29T16:26:39.124Z,0.1803
2023-03-29T16:27:39.288Z,1.3227
2023-03-29T16:28:39.498Z,2.2249
2023-03-29T16:29:39.700Z,1.9836
2023-03-29T16:30:39.906Z,2.0458
2023-03-29T16:31:40.331Z,1.0220
2023-03-29T16:32:40.750Z,1.4338
2023-03-29T16:33:41.003Z,2.7036
2023-03-29T16:34:41.514Z,3.7872
2023-03-29T16:35:42.016Z,5.3683
2023-03-29T16:36:42.170Z,4.4421
2023-03-29T16:37:42.391Z,5.6545
2023-03-29T16:38:42.585Z,3.9681
2023-03-29T16:39:42.825Z,5.7706
2023-03-29T16:40:43.005Z,5.1115
2023-03-29T16:41:43.198Z,7.8184
2023-03-29T16:42:43.419Z,3.6089
2023-03-29T16:43:43.615Z,4.3286
2023-03-29T16:44:43.847Z,2.9455
2023-03-29T16:45:44.026Z,4.5121
2023-03-29T16:46:44.234Z,3.1296
2023-03-29T16:47:44.567Z,5.7066
2023-03-29T16:48:44.857Z,5.2770
2023-03-29T16:49:45.953Z,5.1047
2023-03-29T16:50:46.228Z,5.8725
2023-03-29T16:51:46.451Z,6.4176
2023-03-29T16:52:46.702Z,4.3897
2023-03-29T16:53:46.915Z,5.4111
2023-03-29T16:54:47.133Z,4.5694
2023-03-29T16:55:47.352Z,3.3040
2023-03-29T16:56:47.593Z,4.5114
2023-03-29T16:57:47.757Z,4.9911
2023-03-29T16:58:48.022Z,5.3508
2023-03-29T16:59:48.288Z,5.1643
2023-03-29T17:00:48.697Z,4.2652
2023-03-29T17:01:48.926Z,5.6352
2023-03-29T17:02:49.229Z,5.6484
2023-03-29T17:03:49.532Z,4.0808
2023-03-29T17:04:49.931Z,3.9012
2023-03-29T17:05:50.258Z,3.8360
2023-03-29T17:06:50.694Z,3.6652
2023-03-29T17:07:50.899Z,7.5491
2023-03-29T17:08:51.136Z,3.0067
2023-03-29T17:09:51.371Z,4.9255
2023-03-29T17:10:51.596Z,2.7049
2023-03-29T17:11:52.819Z,2.7826
2023-03-29T17:12:53.164Z,4.7950
2023-03-29T17:13:53.499Z,2.2796
2023-03-29T17:14:53.825Z,4.3846
2023-03-29T17:15:54.109Z,2.2224
2023-03-29T17:16:54.339Z,5.4026
2023-03-29T17:17:54.591Z,5.1715
2023-03-29T17:18:54.837Z,3.3017
2023-03-29T17:19:55.192Z,8.1743
2023-03-29T17:20:55.460Z,3.6000
2023-03-29T17:21:55.667Z,6.4853
2023-03-29T17:22:55.973Z,4.7510
2023-03-29T17:23:56.240Z,6.9575
2023-03-29T17:24:56.573Z,6.6148
2023-03-29T17:25:56.778Z,5.4616
2023-03-29T17:26:57.048Z,3.9050
2023-03-29T17:27:57.293Z,4.3288
2023-03-29T17:28:57.503Z,2.5839
2023-03-29T17:30:57.889Z,4.4024
2023-03-29T17:31:58.082Z,4.8624
2023-03-29T17:32:58.299Z,6.0756
2023-03-29T17:33:58.565Z,6.5503
2023-03-29T17:34:58.792Z,4.0247
2023-03-29T17:35:59.288Z,6.1717
2023-03-29T17:36:59.743Z,5.4561
2023-03-29T17:37:59.957Z,5.2802
2023-03-29T17:39:02.364Z,6.7314
2023-03-29T17:40:00.616Z,6.3489
2023-03-29T17:41:00.930Z,6.2509
2023-03-29T17:42:01.168Z,5.4624
2023-03-29T17:43:01.592Z,4.4381
2023-03-29T17:44:01.964Z,5.9918
2023-03-29T17:45:02.205Z,7.8065
2023-03-29T17:46:02.611Z,7.3322
2023-03-29T17:47:03.361Z,6.1325
2023-03-29T17:48:06.246Z,6.1098
2023-03-29T17:49:04.656Z,4.7512
2023-03-29T17:50:05.272Z,4.9102
2023-03-29T17:51:05.625Z,4.4346
2023-03-29T17:52:05.834Z,5.2800
2023-03-29T17:53:06.179Z,4.6222
2023-03-29T17:54:06.480Z,3.7837
2023-03-29T17:55:06.664Z,5.5269
2023-03-29T17:56:06.942Z,4.8700
2023-03-29T17:57:07.171Z,5.5299
2023-03-29T17:58:07.406Z,7.0892
2023-03-29T17:59:07.642Z,4.2079
2023-03-29T18:00:07.938Z,3.1844
2023-03-29T18:01:08.519Z,4.0229
2023-03-29T18:02:08.841Z,6.9282
2023-03-29T18:03:09.071Z,5.5231
2023-03-29T18:04:09.476Z,5.4599
2023-03-29T18:05:09.700Z,4.6235
2023-03-29T18:06:09.916Z,4.7490
2023-03-29T18:07:10.093Z,6.0151
2023-03-29T18:08:10.328Z,5.4105
2023-03-29T18:09:10.520Z,4.0294
2023-03-29T18:10:10.951Z,3.6668
2023-03-29T18:11:11.231Z,4.3744
2023-03-29T18:12:11.481Z,4.6232
2023-03-29T18:13:11.832Z,3.9056
2023-03-29T18:14:12.053Z,3.7805
2023-03-29T18:15:12.251Z,2.8255
2023-03-29T18:16:12.487Z,6.5516
2023-03-29T18:17:12.734Z,3.7276
2023-03-29T18:18:12.910Z,2.7656
2023-03-29T18:19:13.182Z,3.0045
2023-03-29T18:20:13.428Z,3.2429
2023-03-29T18:21:13.715Z,4.3883
2023-03-29T18:22:14.555Z,4.7160
2023-03-29T18:23:15.074Z,4.1929
2023-03-29T18:24:15.478Z,4.4232
2023-03-29T18:25:15.795Z,3.9587
2023-03-29T18:26:16.272Z,3.4184
2023-03-29T18:27:16.536Z,4.1894
2023-03-29T18:28:16.729Z,1.9841
2023-03-29T18:29:17.014Z,0.0000
2023-03-29T18:30:17.292Z,1.8613
2023-03-29T18:31:17.739Z,4.7302
2023-03-29T18:32:18.047Z,6.0054
2023-03-29T18:33:18.328Z,3.9586
2023-03-29T18:34:18.541Z,0.7819
2023-03-29T18:35:18.818Z,0.4811
2023-03-29T18:36:19.074Z,3.2437
2023-03-29T18:37:19.643Z,3.3446
2023-03-29T18:38:19.933Z,5.3486
2023-03-29T18:39:20.171Z,2.4618
2023-03-29T18:40:20.373Z,0.1803
2023-03-29T18:41:20.666Z,1.0225
2023-03-29T18:43:21.011Z,3.1944
2023-03-29T18:44:21.224Z,1.4417
2023-03-29T18:45:21.650Z,4.7510
2023-03-29T18:46:22.110Z,4.4903
2023-03-29T18:47:22.462Z,3.5349
2023-03-29T18:48:22.859Z,2.8157
2023-03-29T18:49:23.072Z,2.9408
2023-03-29T18:50:23.297Z,3.0050
2023-03-29T18:51:23.493Z,0.0000
2023-03-29T18:53:23.794Z,0.0602
2023-03-29T18:54:24.114Z,0.0000
2023-03-29T18:55:24.364Z,0.1200
2023-03-29T18:56:24.595Z,0.0000
2023-03-29T18:57:24.962Z,0.3001
2023-03-29T18:58:25.193Z,7.9878
2023-03-29T18:59:25.458Z,6.5513
2023-03-29T19:00:25.723Z,3.2438
2023-03-29T19:01:25.972Z,4.6875
2023-03-29T19:02:26.263Z,6.7267
2023-03-29T19:03:26.607Z,5.5851
2023-03-29T19:04:27.025Z,6.8398
2023-03-29T19:05:27.340Z,7.3030
2023-03-29T19:06:27.561Z,6.9685
2023-03-29T19:07:27.874Z,6.5464
2023-03-29T19:08:28.229Z,6.8977
2023-03-29T19:09:28.507Z,5.7652
2023-03-29T19:10:28.813Z,5.4006
2023-03-29T19:11:29.176Z,5.8826
2023-03-29T19:12:29.487Z,5.2827
2023-03-29T19:13:29.764Z,4.5011
2023-03-29T19:14:30.078Z,4.0834
2023-03-29T19:15:30.437Z,5.6995
2023-03-29T19:16:30.755Z,4.1394
2023-03-29T19:17:31.074Z,3.6014
2023-03-29T19:18:31.390Z,3.5428
2023-03-29T19:19:31.663Z,4.1399
2023-03-29T19:20:31.922Z,3.4847
2023-03-29T19:21:32.307Z,3.8410
2023-03-29T19:23:32.748Z,3.9144
2023-03-29T19:24:32.977Z,3.4812
2023-03-29T19:25:33.265Z,3.7267
2023-03-29T19:26:33.614Z,3.3605
2023-03-29T19:27:33.885Z,3.8417
2023-03-29T19:28:34.148Z,3.9042
2023-03-29T19:29:34.410Z,3.0025
2023-03-29T19:30:34.697Z,3.1843
2023-03-29T19:31:35.078Z,4.0204
2023-03-29T19:32:35.340Z,2.2202
2023-03-29T19:33:35.612Z,3.6046
2023-03-29T19:34:35.915Z,4.5630
2023-03-29T19:35:36.343Z,1.0784
2023-03-29T19:36:36.589Z,2.7618
2023-03-29T19:37:36.921Z,5.8882
2023-03-29T19:38:37.162Z,4.9244
2023-03-29T19:39:37.459Z,3.8428
2023-03-29T19:40:37.774Z,4.4433
2023-03-29T19:41:39.441Z,5.7635
2023-03-29T19:42:38.526Z,4.9690
2023-03-29T19:43:38.866Z,4.3830
2023-03-29T19:44:39.158Z,5.6416
2023-03-29T19:45:39.432Z,3.4822
2023-03-29T19:46:39.737Z,3.4841
2023-03-29T19:47:40.114Z,4.5608
2023-03-29T19:48:40.454Z,6.1749
2023-03-29T19:49:40.799Z,5.9972
2023-03-29T19:50:41.195Z,4.5619
2023-03-29T19:51:41.520Z,2.9967
2023-03-29T19:52:41.754Z,2.5216
2023-03-29T19:53:42.056Z,4.8657
2023-03-29T19:54:42.357Z,3.4842
2023-03-29T19:55:42.652Z,2.5204
2023-03-29T19:56:43.023Z,4.6233
2023-03-29T19:57:43.393Z,5.5689
2023-03-29T19:58:43.678Z,5.8266
2023-03-29T19:59:44.025Z,4.6208
2023-03-29T20:00:44.285Z,7.0823
2023-03-29T20:01:44.584Z,1.3812
2023-03-29T20:02:44.901Z,2.0418
2023-03-29T20:03:45.326Z,3.9001
2023-03-29T20:04:45.698Z,2.3342
2023-03-29T20:05:46.047Z,3.6024
2023-03-29T20:06:46.400Z,3.6580
2023-03-29T20:08:47.094Z,3.6114
2023-03-29T20:09:47.457Z,4.7406
2023-03-29T20:10:47.696Z,7.5625
2023-03-29T20:11:47.993Z,1.5020
2023-03-29T20:12:48.397Z,1.4408
2023-03-29T20:13:48.701Z,8.0945
2023-03-29T20:14:49.035Z,3.9021
2023-03-29T20:15:49.435Z,5.2743
2023-03-29T20:16:49.815Z,0.4803